sensor_id;sensor_type;location;lat;lon;timestamp;P1;durP1;ratioP1;P2;durP2;ratioP2
30173;SDS011;16985;50.814;8.530;2022-11-23T00:01:23;7.95;;;3.55;;
30173;SDS011;16985;50.814;8.530;2022-11-23T00:03:52;10.50;;;4.10;;
30173;SDS011;16985;50.814;8.530;2022-11-23T00:06:20;7.65;;;4.32;;
30173;SDS011;16985;50.814;8.530;2022-11-23T00:08:48;12.00;;;4.22;;
30173;SDS011;16985;50.814;8.530;2022-11-23T00:11:15;6.53;;;3.83;;
30173;SDS011;16985;50.814;8.530;2022-11-23T00:13:41;11.05;;;4.30;;
30173;SDS011;16985;50.814;8.530;2022-11-23T00:16:07;14.35;;;4.82;;
30173;SDS011;16985;50.814;8.530;2022-11-23T00:18:44;14.80;;;4.30;;
30173;SDS011;16985;50.814;8.530;2022-11-23T00:21:12;7.38;;;4.00;;
30173;SDS011;16985;50.814;8.530;2022-11-23T00:23:40;8.32;;;4.75;;
30173;SDS011;16985;50.814;8.530;2022-11-23T00:26:07;12.27;;;4.78;;
30173;SDS011;16985;50.814;8.530;2022-11-23T00:28:33;9.48;;;4.40;;
30173;SDS011;16985;50.814;8.530;2022-11-23T00:31:03;16.40;;;4.57;;
30173;SDS011;16985;50.814;8.530;2022-11-23T00:33:30;13.55;;;4.72;;
30173;SDS011;16985;50.814;8.530;2022-11-23T00:38:50;11.68;;;5.38;;
30173;SDS011;16985;50.814;8.530;2022-11-23T00:41:19;12.80;;;4.80;;
30173;SDS011;16985;50.814;8.530;2022-11-23T00:43:47;11.90;;;4.63;;
30173;SDS011;16985;50.814;8.530;2022-11-23T00:46:15;12.63;;;5.82;;
30173;SDS011;16985;50.814;8.530;2022-11-23T00:48:43;13.45;;;5.00;;
30173;SDS011;16985;50.814;8.530;2022-11-23T00:51:12;11.90;;;5.80;;
30173;SDS011;16985;50.814;8.530;2022-11-23T00:53:41;10.77;;;5.28;;
30173;SDS011;16985;50.814;8.530;2022-11-23T00:56:07;11.07;;;5.18;;
30173;SDS011;16985;50.814;8.530;2022-11-23T00:58:34;11.48;;;4.88;;
30173;SDS011;16985;50.814;8.530;2022-11-23T01:01:07;12.80;;;5.25;;
30173;SDS011;16985;50.814;8.530;2022-11-23T01:03:39;17.63;;;5.40;;
30173;SDS011;16985;50.814;8.530;2022-11-23T01:06:11;10.68;;;4.82;;
30173;SDS011;16985;50.814;8.530;2022-11-23T01:08:47;7.30;;;5.18;;
30173;SDS011;16985;50.814;8.530;2022-11-23T01:11:17;11.15;;;4.35;;
30173;SDS011;16985;50.814;8.530;2022-11-23T01:13:44;13.65;;;5.40;;
30173;SDS011;16985;50.814;8.530;2022-11-23T01:16:14;9.63;;;5.45;;
30173;SDS011;16985;50.814;8.530;2022-11-23T01:18:46;12.68;;;5.85;;
30173;SDS011;16985;50.814;8.530;2022-11-23T01:21:12;10.20;;;4.47;;
30173;SDS011;16985;50.814;8.530;2022-11-23T01:23:38;11.07;;;5.10;;
30173;SDS011;16985;50.814;8.530;2022-11-23T01:26:04;18.27;;;5.70;;
30173;SDS011;16985;50.814;8.530;2022-11-23T01:28:33;16.48;;;5.93;;
30173;SDS011;16985;50.814;8.530;2022-11-23T01:33:37;9.98;;;5.03;;
30173;SDS011;16985;50.814;8.530;2022-11-23T01:36:07;11.73;;;5.63;;
30173;SDS011;16985;50.814;8.530;2022-11-23T01:38:54;9.23;;;5.18;;
30173;SDS011;16985;50.814;8.530;2022-11-23T01:41:22;11.68;;;4.63;;
30173;SDS011;16985;50.814;8.530;2022-11-23T01:43:57;11.93;;;5.07;;
30173;SDS011;16985;50.814;8.530;2022-11-23T01:46:23;13.32;;;4.80;;
30173;SDS011;16985;50.814;8.530;2022-11-23T01:51:30;15.70;;;6.18;;
30173;SDS011;16985;50.814;8.530;2022-11-23T01:54:08;15.13;;;4.47;;
30173;SDS011;16985;50.814;8.530;2022-11-23T01:56:43;10.38;;;5.13;;
30173;SDS011;16985;50.814;8.530;2022-11-23T01:59:14;10.30;;;4.05;;
30173;SDS011;16985;50.814;8.530;2022-11-23T02:01:42;11.65;;;4.57;;
30173;SDS011;16985;50.814;8.530;2022-11-23T02:04:10;10.32;;;4.10;;
30173;SDS011;16985;50.814;8.530;2022-11-23T02:06:43;10.65;;;3.95;;
30173;SDS011;16985;50.814;8.530;2022-11-23T02:09:11;9.55;;;4.07;;
30173;SDS011;16985;50.814;8.530;2022-11-23T02:11:40;15.00;;;4.63;;
30173;SDS011;16985;50.814;8.530;2022-11-23T02:14:06;12.55;;;4.38;;
30173;SDS011;16985;50.814;8.530;2022-11-23T02:16:31;11.43;;;3.75;;
30173;SDS011;16985;50.814;8.530;2022-11-23T02:18:58;8.45;;;3.53;;
30173;SDS011;16985;50.814;8.530;2022-11-23T02:21:24;9.90;;;4.22;;
30173;SDS011;16985;50.814;8.530;2022-11-23T02:23:58;8.20;;;3.30;;
30173;SDS011;16985;50.814;8.530;2022-11-23T02:26:36;8.63;;;3.88;;
30173;SDS011;16985;50.814;8.530;2022-11-23T02:29:10;10.57;;;3.58;;
30173;SDS011;16985;50.814;8.530;2022-11-23T02:31:47;11.25;;;4.10;;
30173;SDS011;16985;50.814;8.530;2022-11-23T02:34:13;21.38;;;5.25;;
30173;SDS011;16985;50.814;8.530;2022-11-23T02:36:42;17.17;;;4.33;;
30173;SDS011;16985;50.814;8.530;2022-11-23T02:39:20;12.40;;;3.75;;
30173;SDS011;16985;50.814;8.530;2022-11-23T02:41:59;13.60;;;3.85;;
30173;SDS011;16985;50.814;8.530;2022-11-23T02:44:59;7.65;;;3.28;;
30173;SDS011;16985;50.814;8.530;2022-11-23T02:47:40;12.38;;;3.88;;
30173;SDS011;16985;50.814;8.530;2022-11-23T02:50:07;9.80;;;3.95;;
30173;SDS011;16985;50.814;8.530;2022-11-23T02:52:33;8.32;;;3.65;;
30173;SDS011;16985;50.814;8.530;2022-11-23T02:54:59;9.35;;;3.83;;
30173;SDS011;16985;50.814;8.530;2022-11-23T02:57:25;8.75;;;3.30;;
30173;SDS011;16985;50.814;8.530;2022-11-23T02:59:51;11.80;;;3.33;;
30173;SDS011;16985;50.814;8.530;2022-11-23T03:02:17;12.52;;;5.95;;
30173;SDS011;16985;50.814;8.530;2022-11-23T03:04:43;9.75;;;3.33;;
30173;SDS011;16985;50.814;8.530;2022-11-23T03:07:08;9.90;;;3.92;;
30173;SDS011;16985;50.814;8.530;2022-11-23T03:09:34;10.88;;;4.13;;
30173;SDS011;16985;50.814;8.530;2022-11-23T03:12:01;7.78;;;3.88;;
30173;SDS011;16985;50.814;8.530;2022-11-23T03:14:27;8.07;;;3.58;;
30173;SDS011;16985;50.814;8.530;2022-11-23T03:16:56;6.75;;;3.30;;
30173;SDS011;16985;50.814;8.530;2022-11-23T03:19:24;10.02;;;3.78;;
30173;SDS011;16985;50.814;8.530;2022-11-23T03:21:51;8.95;;;3.50;;
30173;SDS011;16985;50.814;8.530;2022-11-23T03:24:16;7.78;;;3.35;;
30173;SDS011;16985;50.814;8.530;2022-11-23T03:26:43;10.18;;;4.10;;
30173;SDS011;16985;50.814;8.530;2022-11-23T03:29:14;16.73;;;4.35;;
30173;SDS011;16985;50.814;8.530;2022-11-23T03:31:41;12.18;;;4.18;;
30173;SDS011;16985;50.814;8.530;2022-11-23T03:34:10;8.82;;;3.40;;
30173;SDS011;16985;50.814;8.530;2022-11-23T03:36:37;11.85;;;3.55;;
30173;SDS011;16985;50.814;8.530;2022-11-23T03:39:03;14.80;;;4.45;;
30173;SDS011;16985;50.814;8.530;2022-11-23T03:41:55;15.05;;;3.70;;
30173;SDS011;16985;50.814;8.530;2022-11-23T03:44:25;12.40;;;3.63;;
30173;SDS011;16985;50.814;8.530;2022-11-23T03:46:52;10.77;;;4.30;;
30173;SDS011;16985;50.814;8.530;2022-11-23T03:49:18;10.98;;;3.58;;
30173;SDS011;16985;50.814;8.530;2022-11-23T03:51:43;13.68;;;3.50;;
30173;SDS011;16985;50.814;8.530;2022-11-23T03:54:09;12.52;;;4.10;;
30173;SDS011;16985;50.814;8.530;2022-11-23T03:56:36;12.90;;;4.05;;
30173;SDS011;16985;50.814;8.530;2022-11-23T03:59:02;6.22;;;3.25;;
30173;SDS011;16985;50.814;8.530;2022-11-23T04:01:28;12.00;;;3.58;;
30173;SDS011;16985;50.814;8.530;2022-11-23T04:03:59;22.80;;;5.13;;
30173;SDS011;16985;50.814;8.530;2022-11-23T04:06:35;10.18;;;4.15;;
30173;SDS011;16985;50.814;8.530;2022-11-23T04:09:27;9.48;;;3.90;;
30173;SDS011;16985;50.814;8.530;2022-11-23T04:12:13;8.02;;;3.28;;
30173;SDS011;16985;50.814;8.530;2022-11-23T04:14:39;10.30;;;3.80;;
30173;SDS011;16985;50.814;8.530;2022-11-23T04:17:05;8.70;;;4.07;;
30173;SDS011;16985;50.814;8.530;2022-11-23T04:19:31;11.25;;;4.10;;
30173;SDS011;16985;50.814;8.530;2022-11-23T04:21:57;18.30;;;4.85;;
30173;SDS011;16985;50.814;8.530;2022-11-23T04:24:25;11.37;;;4.10;;
30173;SDS011;16985;50.814;8.530;2022-11-23T04:26:53;7.43;;;3.47;;
30173;SDS011;16985;50.814;8.530;2022-11-23T04:29:19;12.02;;;4.30;;
30173;SDS011;16985;50.814;8.530;2022-11-23T04:31:50;14.02;;;4.65;;
30173;SDS011;16985;50.814;8.530;2022-11-23T04:34:17;12.43;;;3.75;;
30173;SDS011;16985;50.814;8.530;2022-11-23T04:36:43;10.77;;;4.13;;
30173;SDS011;16985;50.814;8.530;2022-11-23T04:39:10;9.18;;;4.10;;
30173;SDS011;16985;50.814;8.530;2022-11-23T04:41:51;5.15;;;3.28;;
30173;SDS011;16985;50.814;8.530;2022-11-23T04:44:17;15.45;;;3.72;;
30173;SDS011;16985;50.814;8.530;2022-11-23T04:46:47;13.43;;;4.03;;
30173;SDS011;16985;50.814;8.530;2022-11-23T04:49:14;11.13;;;3.72;;
30173;SDS011;16985;50.814;8.530;2022-11-23T04:51:43;12.65;;;3.80;;
30173;SDS011;16985;50.814;8.530;2022-11-23T04:54:09;21.55;;;4.68;;
30173;SDS011;16985;50.814;8.530;2022-11-23T04:56:42;16.70;;;4.40;;
30173;SDS011;16985;50.814;8.530;2022-11-23T04:59:08;15.02;;;3.92;;
30173;SDS011;16985;50.814;8.530;2022-11-23T05:01:35;14.45;;;5.40;;
30173;SDS011;16985;50.814;8.530;2022-11-23T05:04:20;23.45;;;5.13;;
30173;SDS011;16985;50.814;8.530;2022-11-23T05:06:47;9.35;;;3.78;;
30173;SDS011;16985;50.814;8.530;2022-11-23T05:09:13;8.43;;;3.42;;
30173;SDS011;16985;50.814;8.530;2022-11-23T05:12:18;8.82;;;3.58;;
30173;SDS011;16985;50.814;8.530;2022-11-23T05:14:44;13.55;;;3.50;;
30173;SDS011;16985;50.814;8.530;2022-11-23T05:17:14;11.65;;;4.07;;
30173;SDS011;16985;50.814;8.530;2022-11-23T05:19:40;5.97;;;2.63;;
30173;SDS011;16985;50.814;8.530;2022-11-23T05:22:06;16.33;;;3.92;;
30173;SDS011;16985;50.814;8.530;2022-11-23T05:24:34;11.82;;;3.42;;
30173;SDS011;16985;50.814;8.530;2022-11-23T05:27:14;8.25;;;3.40;;
30173;SDS011;16985;50.814;8.530;2022-11-23T05:29:40;7.30;;;3.13;;
30173;SDS011;16985;50.814;8.530;2022-11-23T05:32:06;16.52;;;3.72;;
30173;SDS011;16985;50.814;8.530;2022-11-23T05:34:32;12.48;;;4.55;;
30173;SDS011;16985;50.814;8.530;2022-11-23T05:36:59;10.65;;;2.97;;
30173;SDS011;16985;50.814;8.530;2022-11-23T05:39:25;10.50;;;3.90;;
30173;SDS011;16985;50.814;8.530;2022-11-23T05:41:52;6.18;;;3.03;;
30173;SDS011;16985;50.814;8.530;2022-11-23T05:44:31;9.90;;;3.08;;
30173;SDS011;16985;50.814;8.530;2022-11-23T05:46:58;6.10;;;2.88;;
30173;SDS011;16985;50.814;8.530;2022-11-23T05:51:52;11.55;;;3.60;;
30173;SDS011;16985;50.814;8.530;2022-11-23T05:54:18;5.28;;;3.05;;
30173;SDS011;16985;50.814;8.530;2022-11-23T05:56:54;8.52;;;4.60;;
30173;SDS011;16985;50.814;8.530;2022-11-23T05:59:23;13.63;;;4.63;;
30173;SDS011;16985;50.814;8.530;2022-11-23T06:01:54;20.17;;;4.63;;
30173;SDS011;16985;50.814;8.530;2022-11-23T06:04:25;9.73;;;4.40;;
30173;SDS011;16985;50.814;8.530;2022-11-23T06:06:51;14.68;;;4.03;;
30173;SDS011;16985;50.814;8.530;2022-11-23T06:09:23;9.63;;;4.63;;
30173;SDS011;16985;50.814;8.530;2022-11-23T06:11:51;14.38;;;4.78;;
30173;SDS011;16985;50.814;8.530;2022-11-23T06:14:18;8.77;;;4.90;;
30173;SDS011;16985;50.814;8.530;2022-11-23T06:16:45;13.85;;;4.88;;
30173;SDS011;16985;50.814;8.530;2022-11-23T06:19:21;14.48;;;4.13;;
30173;SDS011;16985;50.814;8.530;2022-11-23T06:21:47;19.92;;;4.22;;
30173;SDS011;16985;50.814;8.530;2022-11-23T06:24:14;12.68;;;4.20;;
30173;SDS011;16985;50.814;8.530;2022-11-23T06:26:39;12.15;;;4.13;;
30173;SDS011;16985;50.814;8.530;2022-11-23T06:29:06;15.50;;;4.28;;
30173;SDS011;16985;50.814;8.530;2022-11-23T06:31:32;18.42;;;4.55;;
30173;SDS011;16985;50.814;8.530;2022-11-23T06:33:58;16.17;;;4.63;;
30173;SDS011;16985;50.814;8.530;2022-11-23T06:36:24;16.92;;;4.65;;
30173;SDS011;16985;50.814;8.530;2022-11-23T06:38:50;18.85;;;4.75;;
30173;SDS011;16985;50.814;8.530;2022-11-23T06:41:21;11.35;;;4.07;;
30173;SDS011;16985;50.814;8.530;2022-11-23T06:43:47;15.45;;;3.58;;
30173;SDS011;16985;50.814;8.530;2022-11-23T06:46:21;17.33;;;4.05;;
30173;SDS011;16985;50.814;8.530;2022-11-23T06:48:47;17.00;;;4.55;;
30173;SDS011;16985;50.814;8.530;2022-11-23T06:51:14;6.70;;;3.38;;
30173;SDS011;16985;50.814;8.530;2022-11-23T06:53:41;9.13;;;4.25;;
30173;SDS011;16985;50.814;8.530;2022-11-23T06:56:08;10.13;;;4.25;;
30173;SDS011;16985;50.814;8.530;2022-11-23T06:58:34;12.52;;;4.18;;
30173;SDS011;16985;50.814;8.530;2022-11-23T07:01:04;6.45;;;4.40;;
30173;SDS011;16985;50.814;8.530;2022-11-23T07:03:41;11.18;;;4.25;;
30173;SDS011;16985;50.814;8.530;2022-11-23T07:06:18;17.60;;;4.32;;
30173;SDS011;16985;50.814;8.530;2022-11-23T07:08:44;15.35;;;4.60;;
30173;SDS011;16985;50.814;8.530;2022-11-23T07:11:25;12.48;;;5.00;;
30173;SDS011;16985;50.814;8.530;2022-11-23T07:13:53;11.03;;;3.87;;
30173;SDS011;16985;50.814;8.530;2022-11-23T07:16:20;11.23;;;3.78;;
30173;SDS011;16985;50.814;8.530;2022-11-23T07:18:48;15.10;;;4.72;;
30173;SDS011;16985;50.814;8.530;2022-11-23T07:21:14;19.23;;;5.75;;
30173;SDS011;16985;50.814;8.530;2022-11-23T07:23:40;12.30;;;4.22;;
30173;SDS011;16985;50.814;8.530;2022-11-23T07:26:07;19.42;;;4.03;;
30173;SDS011;16985;50.814;8.530;2022-11-23T07:28:33;13.75;;;4.20;;
30173;SDS011;16985;50.814;8.530;2022-11-23T07:30:59;11.88;;;3.67;;
30173;SDS011;16985;50.814;8.530;2022-11-23T07:33:26;11.15;;;3.90;;
30173;SDS011;16985;50.814;8.530;2022-11-23T07:35:52;13.20;;;3.95;;
30173;SDS011;16985;50.814;8.530;2022-11-23T07:38:19;8.13;;;4.50;;
30173;SDS011;16985;50.814;8.530;2022-11-23T07:40:47;12.30;;;3.58;;
30173;SDS011;16985;50.814;8.530;2022-11-23T07:43:28;10.98;;;4.57;;
30173;SDS011;16985;50.814;8.530;2022-11-23T07:45:54;15.90;;;5.75;;
30173;SDS011;16985;50.814;8.530;2022-11-23T07:48:21;14.50;;;5.63;;
30173;SDS011;16985;50.814;8.530;2022-11-23T07:50:50;20.63;;;5.68;;
30173;SDS011;16985;50.814;8.530;2022-11-23T07:53:17;12.13;;;5.03;;
30173;SDS011;16985;50.814;8.530;2022-11-23T07:55:43;13.57;;;5.65;;
30173;SDS011;16985;50.814;8.530;2022-11-23T07:58:09;18.17;;;6.60;;
30173;SDS011;16985;50.814;8.530;2022-11-23T08:00:35;15.57;;;5.55;;
30173;SDS011;16985;50.814;8.530;2022-11-23T08:03:02;17.23;;;5.70;;
30173;SDS011;16985;50.814;8.530;2022-11-23T08:05:30;11.27;;;5.32;;
30173;SDS011;16985;50.814;8.530;2022-11-23T08:08:00;11.85;;;4.55;;
30173;SDS011;16985;50.814;8.530;2022-11-23T08:10:28;18.20;;;5.68;;
30173;SDS011;16985;50.814;8.530;2022-11-23T08:12:56;21.92;;;6.72;;
30173;SDS011;16985;50.814;8.530;2022-11-23T08:15:23;14.18;;;5.35;;
30173;SDS011;16985;50.814;8.530;2022-11-23T08:17:52;18.40;;;6.13;;
30173;SDS011;16985;50.814;8.530;2022-11-23T08:20:22;11.07;;;5.20;;
30173;SDS011;16985;50.814;8.530;2022-11-23T08:22:49;23.27;;;5.82;;
30173;SDS011;16985;50.814;8.530;2022-11-23T08:25:15;11.30;;;5.50;;
30173;SDS011;16985;50.814;8.530;2022-11-23T08:27:40;14.85;;;5.15;;
30173;SDS011;16985;50.814;8.530;2022-11-23T08:30:06;9.40;;;4.38;;
30173;SDS011;16985;50.814;8.530;2022-11-23T08:32:33;13.75;;;5.57;;
30173;SDS011;16985;50.814;8.530;2022-11-23T08:34:59;20.02;;;5.38;;
30173;SDS011;16985;50.814;8.530;2022-11-23T08:37:24;11.55;;;5.35;;
30173;SDS011;16985;50.814;8.530;2022-11-23T08:39:50;12.48;;;5.40;;
30173;SDS011;16985;50.814;8.530;2022-11-23T08:42:16;10.90;;;5.78;;
30173;SDS011;16985;50.814;8.530;2022-11-23T08:44:42;14.73;;;7.22;;
30173;SDS011;16985;50.814;8.530;2022-11-23T08:47:07;17.63;;;6.45;;
30173;SDS011;16985;50.814;8.530;2022-11-23T08:49:33;19.05;;;5.10;;
30173;SDS011;16985;50.814;8.530;2022-11-23T08:51:59;18.45;;;5.30;;
30173;SDS011;16985;50.814;8.530;2022-11-23T08:54:25;12.23;;;4.57;;
30173;SDS011;16985;50.814;8.530;2022-11-23T08:56:51;13.15;;;4.43;;
30173;SDS011;16985;50.814;8.530;2022-11-23T08:59:17;15.60;;;5.07;;
30173;SDS011;16985;50.814;8.530;2022-11-23T09:01:43;10.25;;;4.22;;
30173;SDS011;16985;50.814;8.530;2022-11-23T09:04:09;13.68;;;4.07;;
30173;SDS011;16985;50.814;8.530;2022-11-23T09:06:35;10.68;;;4.07;;
30173;SDS011;16985;50.814;8.530;2022-11-23T09:09:01;14.30;;;4.18;;
30173;SDS011;16985;50.814;8.530;2022-11-23T09:11:27;15.68;;;4.20;;
30173;SDS011;16985;50.814;8.530;2022-11-23T09:13:53;15.55;;;4.45;;
30173;SDS011;16985;50.814;8.530;2022-11-23T09:16:19;11.52;;;4.47;;
30173;SDS011;16985;50.814;8.530;2022-11-23T09:18:45;12.00;;;4.38;;
30173;SDS011;16985;50.814;8.530;2022-11-23T09:21:13;16.63;;;4.95;;
30173;SDS011;16985;50.814;8.530;2022-11-23T09:23:39;8.25;;;3.72;;
30173;SDS011;16985;50.814;8.530;2022-11-23T09:26:05;19.95;;;5.53;;
30173;SDS011;16985;50.814;8.530;2022-11-23T09:28:31;12.07;;;4.57;;
30173;SDS011;16985;50.814;8.530;2022-11-23T09:30:57;17.58;;;4.88;;
30173;SDS011;16985;50.814;8.530;2022-11-23T09:33:26;13.27;;;4.60;;
30173;SDS011;16985;50.814;8.530;2022-11-23T09:35:59;15.30;;;4.57;;
30173;SDS011;16985;50.814;8.530;2022-11-23T09:38:28;18.40;;;5.40;;
30173;SDS011;16985;50.814;8.530;2022-11-23T09:44:04;16.63;;;4.38;;
30173;SDS011;16985;50.814;8.530;2022-11-23T09:47:14;19.45;;;6.05;;
30173;SDS011;16985;50.814;8.530;2022-11-23T09:52:58;17.05;;;4.72;;
30173;SDS011;16985;50.814;8.530;2022-11-23T09:55:38;17.63;;;5.05;;
30173;SDS011;16985;50.814;8.530;2022-11-23T09:58:15;20.77;;;5.32;;
30173;SDS011;16985;50.814;8.530;2022-11-23T10:01:03;12.93;;;5.10;;
30173;SDS011;16985;50.814;8.530;2022-11-23T10:03:39;12.95;;;4.30;;
30173;SDS011;16985;50.814;8.530;2022-11-23T10:06:26;21.25;;;4.90;;
30173;SDS011;16985;50.814;8.530;2022-11-23T10:09:11;11.43;;;4.68;;
30173;SDS011;16985;50.814;8.530;2022-11-23T10:20:36;8.65;;;3.97;;
30173;SDS011;16985;50.814;8.530;2022-11-23T10:26:10;17.90;;;5.85;;
30173;SDS011;16985;50.814;8.530;2022-11-23T10:28:40;10.38;;;4.63;;
30173;SDS011;16985;50.814;8.530;2022-11-23T10:31:14;10.80;;;4.20;;
30173;SDS011;16985;50.814;8.530;2022-11-23T10:33:44;10.55;;;3.75;;
30173;SDS011;16985;50.814;8.530;2022-11-23T10:36:21;12.63;;;4.10;;
30173;SDS011;16985;50.814;8.530;2022-11-23T10:38:48;11.73;;;3.78;;
30173;SDS011;16985;50.814;8.530;2022-11-23T10:41:19;11.23;;;4.20;;
30173;SDS011;16985;50.814;8.530;2022-11-23T10:43:53;17.02;;;4.82;;
30173;SDS011;16985;50.814;8.530;2022-11-23T10:46:28;14.15;;;5.78;;
30173;SDS011;16985;50.814;8.530;2022-11-23T10:51:51;17.75;;;5.47;;
30173;SDS011;16985;50.814;8.530;2022-11-23T10:54:21;10.00;;;3.35;;
30173;SDS011;16985;50.814;8.530;2022-11-23T10:57:00;14.40;;;4.20;;
30173;SDS011;16985;50.814;8.530;2022-11-23T11:02:39;11.55;;;3.63;;
30173;SDS011;16985;50.814;8.530;2022-11-23T11:08:02;13.77;;;4.00;;
30173;SDS011;16985;50.814;8.530;2022-11-23T11:10:41;12.90;;;4.60;;
30173;SDS011;16985;50.814;8.530;2022-11-23T11:18:55;10.68;;;3.58;;
30173;SDS011;16985;50.814;8.530;2022-11-23T11:21:34;14.88;;;3.55;;
30173;SDS011;16985;50.814;8.530;2022-11-23T11:24:05;15.93;;;3.05;;
30173;SDS011;16985;50.814;8.530;2022-11-23T11:26:51;15.57;;;3.42;;
30173;SDS011;16985;50.814;8.530;2022-11-23T11:29:27;11.35;;;2.90;;
30173;SDS011;16985;50.814;8.530;2022-11-23T11:37:13;16.60;;;3.72;;
30173;SDS011;16985;50.814;8.530;2022-11-23T11:42:56;17.02;;;3.30;;
30173;SDS011;16985;50.814;8.530;2022-11-23T11:45:43;13.50;;;2.92;;
30173;SDS011;16985;50.814;8.530;2022-11-23T11:48:14;20.42;;;3.80;;
30173;SDS011;16985;50.814;8.530;2022-11-23T11:50:55;14.50;;;4.18;;
30173;SDS011;16985;50.814;8.530;2022-11-23T11:53:29;11.15;;;3.05;;
30173;SDS011;16985;50.814;8.530;2022-11-23T11:56:14;17.35;;;3.58;;
30173;SDS011;16985;50.814;8.530;2022-11-23T11:59:09;15.52;;;3.72;;
30173;SDS011;16985;50.814;8.530;2022-11-23T12:04:39;13.20;;;4.07;;
30173;SDS011;16985;50.814;8.530;2022-11-23T12:07:10;20.58;;;3.47;;
30173;SDS011;16985;50.814;8.530;2022-11-23T12:09:42;9.43;;;2.97;;
30173;SDS011;16985;50.814;8.530;2022-11-23T12:12:15;11.25;;;3.00;;
30173;SDS011;16985;50.814;8.530;2022-11-23T12:14:44;18.40;;;4.40;;
30173;SDS011;16985;50.814;8.530;2022-11-23T12:23:08;14.60;;;3.70;;
30173;SDS011;16985;50.814;8.530;2022-11-23T12:25:57;14.32;;;2.90;;
30173;SDS011;16985;50.814;8.530;2022-11-23T12:31:40;22.48;;;3.78;;
30173;SDS011;16985;50.814;8.530;2022-11-23T12:42:43;15.45;;;4.32;;
30173;SDS011;16985;50.814;8.530;2022-11-23T12:48:02;10.40;;;2.97;;
30173;SDS011;16985;50.814;8.530;2022-11-23T12:53:53;14.65;;;2.75;;
30173;SDS011;16985;50.814;8.530;2022-11-23T12:59:18;7.47;;;2.40;;
30173;SDS011;16985;50.814;8.530;2022-11-23T13:01:48;14.32;;;4.07;;
30173;SDS011;16985;50.814;8.530;2022-11-23T13:10:17;15.23;;;2.70;;
30173;SDS011;16985;50.814;8.530;2022-11-23T13:19:07;6.78;;;2.38;;
30173;SDS011;16985;50.814;8.530;2022-11-23T13:21:44;10.93;;;2.40;;
30173;SDS011;16985;50.814;8.530;2022-11-23T13:24:33;6.85;;;2.50;;
30173;SDS011;16985;50.814;8.530;2022-11-23T13:35:02;7.68;;;2.22;;
30173;SDS011;16985;50.814;8.530;2022-11-23T13:38:23;8.63;;;2.53;;
30173;SDS011;16985;50.814;8.530;2022-11-23T13:40:39;9.10;;;2.90;;
30173;SDS011;16985;50.814;8.530;2022-11-23T13:45:40;7.82;;;2.97;;
30173;SDS011;16985;50.814;8.530;2022-11-23T13:50:35;7.80;;;1.92;;
30173;SDS011;16985;50.814;8.530;2022-11-23T13:53:18;11.38;;;2.60;;
30173;SDS011;16985;50.814;8.530;2022-11-23T14:04:35;10.75;;;2.42;;
30173;SDS011;16985;50.814;8.530;2022-11-23T14:07:04;13.65;;;3.08;;
30173;SDS011;16985;50.814;8.530;2022-11-23T14:09:57;16.75;;;3.50;;
30173;SDS011;16985;50.814;8.530;2022-11-23T14:15:16;9.20;;;2.47;;
30173;SDS011;16985;50.814;8.530;2022-11-23T14:20:48;9.25;;;2.47;;
30173;SDS011;16985;50.814;8.530;2022-11-23T14:34:36;9.00;;;2.40;;
30173;SDS011;16985;50.814;8.530;2022-11-23T14:43:12;5.95;;;2.20;;
30173;SDS011;16985;50.814;8.530;2022-11-23T14:45:44;8.07;;;3.15;;
30173;SDS011;16985;50.814;8.530;2022-11-23T14:48:28;12.40;;;2.60;;
30173;SDS011;16985;50.814;8.530;2022-11-23T14:50:57;7.50;;;2.67;;
30173;SDS011;16985;50.814;8.530;2022-11-23T14:53:28;5.78;;;2.22;;
30173;SDS011;16985;50.814;8.530;2022-11-23T14:56:04;6.97;;;2.67;;
30173;SDS011;16985;50.814;8.530;2022-11-23T14:58:30;13.13;;;2.83;;
30173;SDS011;16985;50.814;8.530;2022-11-23T15:00:58;7.03;;;2.45;;
30173;SDS011;16985;50.814;8.530;2022-11-23T15:03:27;4.63;;;2.47;;
30173;SDS011;16985;50.814;8.530;2022-11-23T15:05:59;17.30;;;3.75;;
30173;SDS011;16985;50.814;8.530;2022-11-23T15:11:16;12.52;;;3.22;;
30173;SDS011;16985;50.814;8.530;2022-11-23T15:13:47;10.43;;;2.80;;
30173;SDS011;16985;50.814;8.530;2022-11-23T15:16:16;7.93;;;2.95;;
30173;SDS011;16985;50.814;8.530;2022-11-23T15:18:44;5.60;;;2.45;;
30173;SDS011;16985;50.814;8.530;2022-11-23T15:23:44;7.70;;;2.80;;
30173;SDS011;16985;50.814;8.530;2022-11-23T15:26:28;8.73;;;2.88;;
30173;SDS011;16985;50.814;8.530;2022-11-23T15:28:55;8.60;;;2.97;;
30173;SDS011;16985;50.814;8.530;2022-11-23T15:31:28;10.10;;;3.28;;
30173;SDS011;16985;50.814;8.530;2022-11-23T15:33:59;8.75;;;4.28;;
30173;SDS011;16985;50.814;8.530;2022-11-23T15:36:36;13.40;;;6.43;;
30173;SDS011;16985;50.814;8.530;2022-11-23T15:39:06;19.60;;;8.18;;
30173;SDS011;16985;50.814;8.530;2022-11-23T15:41:43;25.05;;;10.18;;
30173;SDS011;16985;50.814;8.530;2022-11-23T15:44:23;23.42;;;11.07;;
30173;SDS011;16985;50.814;8.530;2022-11-23T15:46:58;33.60;;;13.18;;
30173;SDS011;16985;50.814;8.530;2022-11-23T15:49:27;35.58;;;12.57;;
30173;SDS011;16985;50.814;8.530;2022-11-23T15:51:59;34.95;;;12.70;;
30173;SDS011;16985;50.814;8.530;2022-11-23T15:54:32;29.98;;;10.80;;
30173;SDS011;16985;50.814;8.530;2022-11-23T15:57:01;24.90;;;10.68;;
30173;SDS011;16985;50.814;8.530;2022-11-23T15:59:39;24.50;;;9.68;;
30173;SDS011;16985;50.814;8.530;2022-11-23T16:02:16;22.88;;;9.75;;
30173;SDS011;16985;50.814;8.530;2022-11-23T16:04:47;26.38;;;9.48;;
30173;SDS011;16985;50.814;8.530;2022-11-23T16:10:27;26.92;;;12.50;;
30173;SDS011;16985;50.814;8.530;2022-11-23T16:12:59;24.52;;;12.45;;
30173;SDS011;16985;50.814;8.530;2022-11-23T16:21:02;23.13;;;11.40;;
30173;SDS011;16985;50.814;8.530;2022-11-23T16:23:50;22.48;;;11.02;;
30173;SDS011;16985;50.814;8.530;2022-11-23T16:26:20;20.65;;;10.07;;
30173;SDS011;16985;50.814;8.530;2022-11-23T16:28:55;25.63;;;11.43;;
30173;SDS011;16985;50.814;8.530;2022-11-23T16:31:36;27.25;;;11.80;;
30173;SDS011;16985;50.814;8.530;2022-11-23T16:34:14;18.15;;;11.70;;
30173;SDS011;16985;50.814;8.530;2022-11-23T16:36:42;21.08;;;12.65;;
30173;SDS011;16985;50.814;8.530;2022-11-23T16:39:08;29.42;;;17.02;;
30173;SDS011;16985;50.814;8.530;2022-11-23T16:41:34;35.75;;;16.95;;
30173;SDS011;16985;50.814;8.530;2022-11-23T16:44:01;34.90;;;18.50;;
30173;SDS011;16985;50.814;8.530;2022-11-23T16:46:27;34.17;;;18.45;;
30173;SDS011;16985;50.814;8.530;2022-11-23T16:48:53;34.78;;;20.63;;
30173;SDS011;16985;50.814;8.530;2022-11-23T16:51:21;30.92;;;18.77;;
30173;SDS011;16985;50.814;8.530;2022-11-23T16:53:47;34.45;;;19.55;;
30173;SDS011;16985;50.814;8.530;2022-11-23T16:56:15;37.67;;;19.00;;
30173;SDS011;16985;50.814;8.530;2022-11-23T16:58:52;34.70;;;19.15;;
30173;SDS011;16985;50.814;8.530;2022-11-23T17:01:20;28.45;;;18.17;;
30173;SDS011;16985;50.814;8.530;2022-11-23T17:03:48;30.77;;;15.55;;
30173;SDS011;16985;50.814;8.530;2022-11-23T17:06:15;30.10;;;16.33;;
30173;SDS011;16985;50.814;8.530;2022-11-23T17:08:42;26.30;;;16.15;;
30173;SDS011;16985;50.814;8.530;2022-11-23T17:11:16;30.23;;;15.47;;
30173;SDS011;16985;50.814;8.530;2022-11-23T17:13:48;24.13;;;14.45;;
30173;SDS011;16985;50.814;8.530;2022-11-23T17:16:18;25.75;;;14.75;;
30173;SDS011;16985;50.814;8.530;2022-11-23T17:18:46;31.20;;;16.92;;
30173;SDS011;16985;50.814;8.530;2022-11-23T17:21:12;29.70;;;15.70;;
30173;SDS011;16985;50.814;8.530;2022-11-23T17:23:39;31.30;;;18.70;;
30173;SDS011;16985;50.814;8.530;2022-11-23T17:26:13;27.50;;;15.98;;
30173;SDS011;16985;50.814;8.530;2022-11-23T17:28:54;26.83;;;17.27;;